Terminal Aerodrome Forecast
Issued by NWS

Home | Current Version | Previous Version | Text Only | Print | Product List | Glossary On
Versions: 1 2 3 4 5 6 7 8 9 10 11 12 13 14 15 16 17 18 19
000
FTUS44 KLIX 191502 AAB
TAFHUM
TAF AMD
KHUM 191502Z 1915/2012 00000KT 1/4SM FG OVC002
     FM191630 10005KT P6SM SCT060
     FM200600 12006KT 1/2SM FG VV002=

USA.gov is the U.S. government's official web portal to all federal, state and local government web resources and services.